sensor_id;sensor_type;location;lat;lon;timestamp;temperature;humidity
13711;DHT22;6927;51.256;9.410;2023-05-10T00:00:37;15.00;99.90
13711;DHT22;6927;51.256;9.410;2023-05-10T00:03:02;15.00;99.90
13711;DHT22;6927;51.256;9.410;2023-05-10T00:05:30;15.00;99.90
13711;DHT22;6927;51.256;9.410;2023-05-10T00:07:56;15.00;99.90
13711;DHT22;6927;51.256;9.410;2023-05-10T00:10:21;14.90;99.90
13711;DHT22;6927;51.256;9.410;2023-05-10T00:12:47;14.90;99.90
13711;DHT22;6927;51.256;9.410;2023-05-10T00:15:13;14.90;99.90
13711;DHT22;6927;51.256;9.410;2023-05-10T00:17:38;14.90;99.90
13711;DHT22;6927;51.256;9.410;2023-05-10T00:20:04;14.80;99.90
13711;DHT22;6927;51.256;9.410;2023-05-10T00:22:31;14.80;99.90
13711;DHT22;6927;51.256;9.410;2023-05-10T00:24:57;14.80;99.90
13711;DHT22;6927;51.256;9.410;2023-05-10T00:27:23;14.80;99.90
13711;DHT22;6927;51.256;9.410;2023-05-10T00:29:48;14.80;99.90
13711;DHT22;6927;51.256;9.410;2023-05-10T00:32:14;14.70;99.90
13711;DHT22;6927;51.256;9.410;2023-05-10T00:34:39;14.70;99.90
13711;DHT22;6927;51.256;9.410;2023-05-10T00:37:05;14.70;99.90
13711;DHT22;6927;51.256;9.410;2023-05-10T00:39:31;14.70;99.90
13711;DHT22;6927;51.256;9.410;2023-05-10T00:41:56;14.70;99.90
13711;DHT22;6927;51.256;9.410;2023-05-10T00:44:22;14.70;99.90
13711;DHT22;6927;51.256;9.410;2023-05-10T00:46:48;14.60;99.90
13711;DHT22;6927;51.256;9.410;2023-05-10T00:49:14;14.60;99.90
13711;DHT22;6927;51.256;9.410;2023-05-10T00:51:40;14.50;99.90
13711;DHT22;6927;51.256;9.410;2023-05-10T00:54:09;14.50;99.90
13711;DHT22;6927;51.256;9.410;2023-05-10T00:56:35;14.50;99.90
13711;DHT22;6927;51.256;9.410;2023-05-10T00:59:01;14.50;99.90
13711;DHT22;6927;51.256;9.410;2023-05-10T01:01:28;14.50;99.90
13711;DHT22;6927;51.256;9.410;2023-05-10T01:03:55;14.50;99.90
13711;DHT22;6927;51.256;9.410;2023-05-10T01:06:20;14.50;99.90
13711;DHT22;6927;51.256;9.410;2023-05-10T01:08:46;14.50;99.90
13711;DHT22;6927;51.256;9.410;2023-05-10T01:11:13;14.40;99.90
13711;DHT22;6927;51.256;9.410;2023-05-10T01:13:40;14.40;99.90
13711;DHT22;6927;51.256;9.410;2023-05-10T01:16:08;14.30;99.90
13711;DHT22;6927;51.256;9.410;2023-05-10T01:18:36;14.30;99.90
13711;DHT22;6927;51.256;9.410;2023-05-10T01:21:13;14.30;99.90
13711;DHT22;6927;51.256;9.410;2023-05-10T01:24:04;14.30;99.90
13711;DHT22;6927;51.256;9.410;2023-05-10T01:32:08;14.10;99.90
13711;DHT22;6927;51.256;9.410;2023-05-10T01:34:48;14.10;99.90
13711;DHT22;6927;51.256;9.410;2023-05-10T01:37:24;14.10;99.90
13711;DHT22;6927;51.256;9.410;2023-05-10T01:40:30;14.00;99.90
13711;DHT22;6927;51.256;9.410;2023-05-10T01:43:03;14.00;99.90
13711;DHT22;6927;51.256;9.410;2023-05-10T01:45:33;14.00;99.90
13711;DHT22;6927;51.256;9.410;2023-05-10T01:48:09;14.00;99.90
13711;DHT22;6927;51.256;9.410;2023-05-10T01:50:38;14.00;99.90
13711;DHT22;6927;51.256;9.410;2023-05-10T01:53:07;14.00;99.90
13711;DHT22;6927;51.256;9.410;2023-05-10T01:55:43;14.00;99.90
13711;DHT22;6927;51.256;9.410;2023-05-10T01:58:14;14.00;99.90
13711;DHT22;6927;51.256;9.410;2023-05-10T02:00:43;13.90;99.90
13711;DHT22;6927;51.256;9.410;2023-05-10T02:03:10;13.90;99.90
13711;DHT22;6927;51.256;9.410;2023-05-10T02:05:37;13.90;99.90
13711;DHT22;6927;51.256;9.410;2023-05-10T02:08:06;13.90;99.90
13711;DHT22;6927;51.256;9.410;2023-05-10T02:10:34;13.90;99.90
13711;DHT22;6927;51.256;9.410;2023-05-10T02:13:01;13.90;99.90
13711;DHT22;6927;51.256;9.410;2023-05-10T02:15:27;13.90;99.90
13711;DHT22;6927;51.256;9.410;2023-05-10T02:17:55;13.90;99.90
13711;DHT22;6927;51.256;9.410;2023-05-10T02:20:22;13.90;99.90
13711;DHT22;6927;51.256;9.410;2023-05-10T02:22:50;13.90;99.90
13711;DHT22;6927;51.256;9.410;2023-05-10T02:25:19;13.90;99.90
13711;DHT22;6927;51.256;9.410;2023-05-10T02:27:46;13.80;99.90
13711;DHT22;6927;51.256;9.410;2023-05-10T02:30:14;13.80;99.90
13711;DHT22;6927;51.256;9.410;2023-05-10T02:32:41;13.80;99.90
13711;DHT22;6927;51.256;9.410;2023-05-10T02:35:07;13.80;99.90
13711;DHT22;6927;51.256;9.410;2023-05-10T02:37:35;13.80;99.90
13711;DHT22;6927;51.256;9.410;2023-05-10T02:40:02;13.70;99.90
13711;DHT22;6927;51.256;9.410;2023-05-10T02:42:34;13.70;99.90
13711;DHT22;6927;51.256;9.410;2023-05-10T02:45:01;13.70;99.90
13711;DHT22;6927;51.256;9.410;2023-05-10T02:47:28;13.70;99.90
13711;DHT22;6927;51.256;9.410;2023-05-10T02:49:54;13.70;99.90
13711;DHT22;6927;51.256;9.410;2023-05-10T02:52:24;13.70;99.90
13711;DHT22;6927;51.256;9.410;2023-05-10T02:54:55;13.70;99.90
13711;DHT22;6927;51.256;9.410;2023-05-10T02:57:43;13.70;99.90
13711;DHT22;6927;51.256;9.410;2023-05-10T03:00:10;13.70;99.90
13711;DHT22;6927;51.256;9.410;2023-05-10T03:02:36;13.60;99.90
13711;DHT22;6927;51.256;9.410;2023-05-10T03:05:02;13.60;99.90
13711;DHT22;6927;51.256;9.410;2023-05-10T03:07:28;13.40;99.90
13711;DHT22;6927;51.256;9.410;2023-05-10T03:09:54;13.30;99.90
13711;DHT22;6927;51.256;9.410;2023-05-10T03:15:31;13.30;99.90
13711;DHT22;6927;51.256;9.410;2023-05-10T03:18:09;13.20;99.90
13711;DHT22;6927;51.256;9.410;2023-05-10T03:20:41;13.20;99.90
13711;DHT22;6927;51.256;9.410;2023-05-10T03:23:34;13.20;99.90
13711;DHT22;6927;51.256;9.410;2023-05-10T03:26:01;13.20;99.90
13711;DHT22;6927;51.256;9.410;2023-05-10T03:28:27;13.20;99.90
13711;DHT22;6927;51.256;9.410;2023-05-10T03:30:54;13.20;99.90
13711;DHT22;6927;51.256;9.410;2023-05-10T03:33:20;13.20;99.90
13711;DHT22;6927;51.256;9.410;2023-05-10T03:35:46;13.20;99.90
13711;DHT22;6927;51.256;9.410;2023-05-10T03:38:12;13.20;99.90
13711;DHT22;6927;51.256;9.410;2023-05-10T03:40:38;13.10;99.90
13711;DHT22;6927;51.256;9.410;2023-05-10T03:43:04;13.10;99.90
13711;DHT22;6927;51.256;9.410;2023-05-10T03:45:30;13.10;99.90
13711;DHT22;6927;51.256;9.410;2023-05-10T03:47:57;13.00;99.90
13711;DHT22;6927;51.256;9.410;2023-05-10T03:50:22;13.00;99.90
13711;DHT22;6927;51.256;9.410;2023-05-10T03:52:48;13.00;99.90
13711;DHT22;6927;51.256;9.410;2023-05-10T03:55:14;13.10;99.90
13711;DHT22;6927;51.256;9.410;2023-05-10T03:57:39;13.00;99.90
13711;DHT22;6927;51.256;9.410;2023-05-10T04:00:05;13.00;99.90
13711;DHT22;6927;51.256;9.410;2023-05-10T04:02:31;13.00;99.90
13711;DHT22;6927;51.256;9.410;2023-05-10T04:04:56;13.00;99.90
13711;DHT22;6927;51.256;9.410;2023-05-10T04:07:22;13.00;99.90
13711;DHT22;6927;51.256;9.410;2023-05-10T04:09:48;13.00;99.90
13711;DHT22;6927;51.256;9.410;2023-05-10T04:12:13;13.10;99.90
13711;DHT22;6927;51.256;9.410;2023-05-10T04:14:39;13.10;99.90
13711;DHT22;6927;51.256;9.410;2023-05-10T04:17:05;13.20;99.90
13711;DHT22;6927;51.256;9.410;2023-05-10T04:19:31;13.20;99.90
13711;DHT22;6927;51.256;9.410;2023-05-10T04:21:56;13.20;99.90
13711;DHT22;6927;51.256;9.410;2023-05-10T04:24:22;13.20;99.90
13711;DHT22;6927;51.256;9.410;2023-05-10T04:26:48;13.10;99.90
13711;DHT22;6927;51.256;9.410;2023-05-10T04:29:14;13.00;99.90
13711;DHT22;6927;51.256;9.410;2023-05-10T04:31:39;13.00;99.90
13711;DHT22;6927;51.256;9.410;2023-05-10T04:34:05;13.00;99.90
13711;DHT22;6927;51.256;9.410;2023-05-10T04:36:31;12.90;99.90
13711;DHT22;6927;51.256;9.410;2023-05-10T04:38:58;12.90;99.90
13711;DHT22;6927;51.256;9.410;2023-05-10T04:41:23;12.90;99.90
13711;DHT22;6927;51.256;9.410;2023-05-10T04:43:50;12.90;99.90
13711;DHT22;6927;51.256;9.410;2023-05-10T04:46:16;12.80;99.90
13711;DHT22;6927;51.256;9.410;2023-05-10T04:48:41;12.90;99.90
13711;DHT22;6927;51.256;9.410;2023-05-10T04:51:07;12.90;99.90
13711;DHT22;6927;51.256;9.410;2023-05-10T04:53:33;12.90;99.90
13711;DHT22;6927;51.256;9.410;2023-05-10T04:55:59;12.90;99.90
13711;DHT22;6927;51.256;9.410;2023-05-10T04:58:24;12.90;99.90
13711;DHT22;6927;51.256;9.410;2023-05-10T05:00:50;12.80;99.90
13711;DHT22;6927;51.256;9.410;2023-05-10T05:03:15;12.80;99.90
13711;DHT22;6927;51.256;9.410;2023-05-10T05:05:41;12.80;99.90
13711;DHT22;6927;51.256;9.410;2023-05-10T05:08:06;12.80;99.90
13711;DHT22;6927;51.256;9.410;2023-05-10T05:10:32;12.80;99.90
13711;DHT22;6927;51.256;9.410;2023-05-10T05:12:57;12.80;99.90
13711;DHT22;6927;51.256;9.410;2023-05-10T05:15:23;12.80;99.90
13711;DHT22;6927;51.256;9.410;2023-05-10T05:17:49;12.80;99.90
13711;DHT22;6927;51.256;9.410;2023-05-10T05:20:14;12.80;99.90
13711;DHT22;6927;51.256;9.410;2023-05-10T05:22:40;12.80;99.90
13711;DHT22;6927;51.256;9.410;2023-05-10T05:25:06;12.90;99.90
13711;DHT22;6927;51.256;9.410;2023-05-10T05:27:31;12.90;99.90
13711;DHT22;6927;51.256;9.410;2023-05-10T05:29:57;13.00;99.90
13711;DHT22;6927;51.256;9.410;2023-05-10T05:32:24;12.90;99.90
13711;DHT22;6927;51.256;9.410;2023-05-10T05:34:49;12.90;99.90
13711;DHT22;6927;51.256;9.410;2023-05-10T05:37:16;12.90;99.90
13711;DHT22;6927;51.256;9.410;2023-05-10T05:39:43;12.90;99.90
13711;DHT22;6927;51.256;9.410;2023-05-10T05:42:09;12.80;99.90
13711;DHT22;6927;51.256;9.410;2023-05-10T05:44:35;12.80;99.90
13711;DHT22;6927;51.256;9.410;2023-05-10T05:47:01;12.80;99.90
13711;DHT22;6927;51.256;9.410;2023-05-10T05:49:27;12.70;99.90
13711;DHT22;6927;51.256;9.410;2023-05-10T05:51:52;12.70;99.90
13711;DHT22;6927;51.256;9.410;2023-05-10T05:54:18;12.70;99.90
13711;DHT22;6927;51.256;9.410;2023-05-10T05:56:43;12.70;99.90
13711;DHT22;6927;51.256;9.410;2023-05-10T05:59:10;12.70;99.90
13711;DHT22;6927;51.256;9.410;2023-05-10T06:01:35;12.80;99.90
13711;DHT22;6927;51.256;9.410;2023-05-10T06:04:01;12.80;99.90
13711;DHT22;6927;51.256;9.410;2023-05-10T06:06:27;12.80;99.90
13711;DHT22;6927;51.256;9.410;2023-05-10T06:08:53;12.80;99.90
13711;DHT22;6927;51.256;9.410;2023-05-10T06:11:18;12.90;99.90
13711;DHT22;6927;51.256;9.410;2023-05-10T06:13:44;12.80;99.90
13711;DHT22;6927;51.256;9.410;2023-05-10T06:16:09;12.80;99.90
13711;DHT22;6927;51.256;9.410;2023-05-10T06:18:35;12.80;99.90
13711;DHT22;6927;51.256;9.410;2023-05-10T06:21:01;12.80;99.90
13711;DHT22;6927;51.256;9.410;2023-05-10T06:23:27;12.80;99.90
13711;DHT22;6927;51.256;9.410;2023-05-10T06:25:52;12.80;99.90
13711;DHT22;6927;51.256;9.410;2023-05-10T06:28:18;12.80;99.90
13711;DHT22;6927;51.256;9.410;2023-05-10T06:30:43;12.80;99.90
13711;DHT22;6927;51.256;9.410;2023-05-10T06:33:09;12.80;99.90
13711;DHT22;6927;51.256;9.410;2023-05-10T06:35:35;12.90;99.90
13711;DHT22;6927;51.256;9.410;2023-05-10T06:38:02;12.90;99.90
13711;DHT22;6927;51.256;9.410;2023-05-10T06:40:27;13.00;99.90
13711;DHT22;6927;51.256;9.410;2023-05-10T06:42:53;13.00;99.90
13711;DHT22;6927;51.256;9.410;2023-05-10T06:45:19;13.00;99.90
13711;DHT22;6927;51.256;9.410;2023-05-10T06:47:44;13.10;99.90
13711;DHT22;6927;51.256;9.410;2023-05-10T06:50:11;13.20;99.90
13711;DHT22;6927;51.256;9.410;2023-05-10T06:52:37;13.30;99.90
13711;DHT22;6927;51.256;9.410;2023-05-10T06:55:06;13.30;99.90
13711;DHT22;6927;51.256;9.410;2023-05-10T06:57:32;13.40;99.90
13711;DHT22;6927;51.256;9.410;2023-05-10T07:00:01;13.40;99.90
13711;DHT22;6927;51.256;9.410;2023-05-10T07:02:29;13.40;99.90
13711;DHT22;6927;51.256;9.410;2023-05-10T07:04:54;13.40;99.90
13711;DHT22;6927;51.256;9.410;2023-05-10T07:07:20;13.50;99.90
13711;DHT22;6927;51.256;9.410;2023-05-10T07:09:46;13.50;99.90
13711;DHT22;6927;51.256;9.410;2023-05-10T07:12:11;13.50;99.90
13711;DHT22;6927;51.256;9.410;2023-05-10T07:14:37;13.60;99.90
13711;DHT22;6927;51.256;9.410;2023-05-10T07:17:02;13.70;99.90
13711;DHT22;6927;51.256;9.410;2023-05-10T07:19:28;13.70;99.90
13711;DHT22;6927;51.256;9.410;2023-05-10T07:21:54;13.80;99.90
13711;DHT22;6927;51.256;9.410;2023-05-10T07:24:20;13.90;99.90
13711;DHT22;6927;51.256;9.410;2023-05-10T07:26:46;14.00;99.90
13711;DHT22;6927;51.256;9.410;2023-05-10T07:29:11;14.00;99.90
13711;DHT22;6927;51.256;9.410;2023-05-10T07:31:37;14.00;99.90
13711;DHT22;6927;51.256;9.410;2023-05-10T07:34:02;14.10;99.90
13711;DHT22;6927;51.256;9.410;2023-05-10T07:36:28;14.10;99.90
13711;DHT22;6927;51.256;9.410;2023-05-10T07:38:54;14.20;99.90
13711;DHT22;6927;51.256;9.410;2023-05-10T07:41:19;14.40;99.90
13711;DHT22;6927;51.256;9.410;2023-05-10T07:43:46;14.50;99.90
13711;DHT22;6927;51.256;9.410;2023-05-10T07:46:11;14.70;99.90
13711;DHT22;6927;51.256;9.410;2023-05-10T07:48:37;14.90;99.90
13711;DHT22;6927;51.256;9.410;2023-05-10T07:51:03;15.10;99.90
13711;DHT22;6927;51.256;9.410;2023-05-10T07:53:28;15.20;99.90
13711;DHT22;6927;51.256;9.410;2023-05-10T07:55:57;15.30;99.90
13711;DHT22;6927;51.256;9.410;2023-05-10T07:58:24;15.40;99.90
13711;DHT22;6927;51.256;9.410;2023-05-10T08:00:49;15.60;99.90
13711;DHT22;6927;51.256;9.410;2023-05-10T08:03:15;16.00;99.90
13711;DHT22;6927;51.256;9.410;2023-05-10T08:05:41;16.80;99.90
13711;DHT22;6927;51.256;9.410;2023-05-10T08:08:06;17.50;99.90
13711;DHT22;6927;51.256;9.410;2023-05-10T08:10:32;18.10;99.90
13711;DHT22;6927;51.256;9.410;2023-05-10T08:12:57;18.10;99.90
13711;DHT22;6927;51.256;9.410;2023-05-10T08:15:24;17.90;99.90
13711;DHT22;6927;51.256;9.410;2023-05-10T08:17:51;18.10;99.90
13711;DHT22;6927;51.256;9.410;2023-05-10T08:20:17;18.00;99.90
13711;DHT22;6927;51.256;9.410;2023-05-10T08:22:45;18.00;99.90
13711;DHT22;6927;51.256;9.410;2023-05-10T08:25:10;18.20;99.90
13711;DHT22;6927;51.256;9.410;2023-05-10T08:27:36;18.30;99.90
13711;DHT22;6927;51.256;9.410;2023-05-10T08:30:02;18.30;99.90
13711;DHT22;6927;51.256;9.410;2023-05-10T08:32:27;18.10;99.90
13711;DHT22;6927;51.256;9.410;2023-05-10T08:34:53;17.90;99.90
13711;DHT22;6927;51.256;9.410;2023-05-10T08:37:18;17.60;99.90
13711;DHT22;6927;51.256;9.410;2023-05-10T08:39:44;17.30;99.90
13711;DHT22;6927;51.256;9.410;2023-05-10T08:42:16;17.20;99.90
13711;DHT22;6927;51.256;9.410;2023-05-10T08:44:45;17.10;99.90
13711;DHT22;6927;51.256;9.410;2023-05-10T08:47:12;17.30;99.90
13711;DHT22;6927;51.256;9.410;2023-05-10T08:49:38;18.10;99.90
13711;DHT22;6927;51.256;9.410;2023-05-10T08:52:05;18.90;99.90
13711;DHT22;6927;51.256;9.410;2023-05-10T08:54:33;19.60;99.90
13711;DHT22;6927;51.256;9.410;2023-05-10T08:56:59;20.70;99.90
13711;DHT22;6927;51.256;9.410;2023-05-10T08:59:25;21.10;99.90
13711;DHT22;6927;51.256;9.410;2023-05-10T09:01:51;21.10;99.90
13711;DHT22;6927;51.256;9.410;2023-05-10T09:04:19;20.60;99.90
13711;DHT22;6927;51.256;9.410;2023-05-10T09:06:45;20.50;99.90
13711;DHT22;6927;51.256;9.410;2023-05-10T09:09:11;20.60;99.90
13711;DHT22;6927;51.256;9.410;2023-05-10T09:11:37;20.50;99.90
13711;DHT22;6927;51.256;9.410;2023-05-10T09:14:03;20.90;99.90
13711;DHT22;6927;51.256;9.410;2023-05-10T09:16:29;21.10;99.90
13711;DHT22;6927;51.256;9.410;2023-05-10T09:18:54;21.00;99.90
13711;DHT22;6927;51.256;9.410;2023-05-10T09:21:20;21.20;99.90
13711;DHT22;6927;51.256;9.410;2023-05-10T09:23:47;21.40;99.90
13711;DHT22;6927;51.256;9.410;2023-05-10T09:26:12;21.80;99.90
13711;DHT22;6927;51.256;9.410;2023-05-10T09:28:56;22.30;99.90
13711;DHT22;6927;51.256;9.410;2023-05-10T09:31:22;23.00;99.90
13711;DHT22;6927;51.256;9.410;2023-05-10T09:33:49;24.10;99.90
13711;DHT22;6927;51.256;9.410;2023-05-10T09:36:15;24.00;99.90
13711;DHT22;6927;51.256;9.410;2023-05-10T09:38:48;23.70;99.90
13711;DHT22;6927;51.256;9.410;2023-05-10T09:41:24;22.60;99.90
13711;DHT22;6927;51.256;9.410;2023-05-10T09:43:55;21.70;99.90
13711;DHT22;6927;51.256;9.410;2023-05-10T09:46:21;20.80;99.90
13711;DHT22;6927;51.256;9.410;2023-05-10T09:48:48;20.10;99.90
13711;DHT22;6927;51.256;9.410;2023-05-10T09:51:24;19.40;99.90
13711;DHT22;6927;51.256;9.410;2023-05-10T09:54:09;18.80;99.90
13711;DHT22;6927;51.256;9.410;2023-05-10T09:56:38;18.30;99.90
13711;DHT22;6927;51.256;9.410;2023-05-10T09:59:06;18.50;99.90
13711;DHT22;6927;51.256;9.410;2023-05-10T10:01:33;19.00;99.90
13711;DHT22;6927;51.256;9.410;2023-05-10T10:04:03;19.60;99.90
13711;DHT22;6927;51.256;9.410;2023-05-10T10:06:29;20.30;99.90
13711;DHT22;6927;51.256;9.410;2023-05-10T10:08:56;21.10;99.90
13711;DHT22;6927;51.256;9.410;2023-05-10T10:11:22;22.60;99.90
13711;DHT22;6927;51.256;9.410;2023-05-10T10:13:49;23.20;99.90
13711;DHT22;6927;51.256;9.410;2023-05-10T10:16:14;23.60;99.90
13711;DHT22;6927;51.256;9.410;2023-05-10T10:18:42;24.00;99.90
13711;DHT22;6927;51.256;9.410;2023-05-10T10:21:07;23.80;99.90
13711;DHT22;6927;51.256;9.410;2023-05-10T10:23:36;23.70;99.90
13711;DHT22;6927;51.256;9.410;2023-05-10T10:26:03;24.00;99.90
13711;DHT22;6927;51.256;9.410;2023-05-10T10:31:30;24.90;99.90
13711;DHT22;6927;51.256;9.410;2023-05-10T10:34:05;24.80;99.90
13711;DHT22;6927;51.256;9.410;2023-05-10T10:36:32;25.40;99.90
13711;DHT22;6927;51.256;9.410;2023-05-10T10:39:00;25.70;99.90
13711;DHT22;6927;51.256;9.410;2023-05-10T10:41:35;25.30;99.90
13711;DHT22;6927;51.256;9.410;2023-05-10T10:47:21;24.50;99.90
13711;DHT22;6927;51.256;9.410;2023-05-10T10:50:12;24.80;99.90
13711;DHT22;6927;51.256;9.410;2023-05-10T10:52:39;25.00;99.90
13711;DHT22;6927;51.256;9.410;2023-05-10T11:00:35;23.00;99.90
13711;DHT22;6927;51.256;9.410;2023-05-10T11:05:48;21.60;99.90
13711;DHT22;6927;51.256;9.410;2023-05-10T11:10:53;20.50;99.90
13711;DHT22;6927;51.256;9.410;2023-05-10T11:13:27;20.20;99.90
13711;DHT22;6927;51.256;9.410;2023-05-10T11:15:54;20.20;99.90
13711;DHT22;6927;51.256;9.410;2023-05-10T11:18:27;20.10;99.90
13711;DHT22;6927;51.256;9.410;2023-05-10T11:21:02;20.20;99.90
13711;DHT22;6927;51.256;9.410;2023-05-10T11:23:51;20.30;99.90
13711;DHT22;6927;51.256;9.410;2023-05-10T11:26:18;20.30;99.90
13711;DHT22;6927;51.256;9.410;2023-05-10T11:28:44;20.30;99.90
13711;DHT22;6927;51.256;9.410;2023-05-10T11:31:12;19.80;99.90
13711;DHT22;6927;51.256;9.410;2023-05-10T11:36:39;19.70;99.90
13711;DHT22;6927;51.256;9.410;2023-05-10T11:39:05;19.70;99.90
13711;DHT22;6927;51.256;9.410;2023-05-10T11:41:31;19.60;99.90
13711;DHT22;6927;51.256;9.410;2023-05-10T11:43:58;19.50;99.90
13711;DHT22;6927;51.256;9.410;2023-05-10T11:46:25;19.20;99.90
13711;DHT22;6927;51.256;9.410;2023-05-10T11:48:59;18.80;99.90
13711;DHT22;6927;51.256;9.410;2023-05-10T11:51:26;18.60;99.90
13711;DHT22;6927;51.256;9.410;2023-05-10T11:53:54;18.60;99.90
13711;DHT22;6927;51.256;9.410;2023-05-10T11:56:20;18.50;99.90
13711;DHT22;6927;51.256;9.410;2023-05-10T11:58:55;18.50;99.90
13711;DHT22;6927;51.256;9.410;2023-05-10T12:01:22;18.50;99.90
13711;DHT22;6927;51.256;9.410;2023-05-10T12:03:49;18.70;99.90
13711;DHT22;6927;51.256;9.410;2023-05-10T12:06:16;18.90;99.90
13711;DHT22;6927;51.256;9.410;2023-05-10T12:08:45;19.00;99.90
13711;DHT22;6927;51.256;9.410;2023-05-10T12:11:12;19.10;99.90
13711;DHT22;6927;51.256;9.410;2023-05-10T12:13:43;19.00;99.90
13711;DHT22;6927;51.256;9.410;2023-05-10T12:16:21;19.10;99.90
13711;DHT22;6927;51.256;9.410;2023-05-10T12:18:55;19.00;99.90
13711;DHT22;6927;51.256;9.410;2023-05-10T12:21:21;18.70;99.90
13711;DHT22;6927;51.256;9.410;2023-05-10T12:23:59;18.40;99.90
13711;DHT22;6927;51.256;9.410;2023-05-10T12:26:25;18.00;99.90
13711;DHT22;6927;51.256;9.410;2023-05-10T12:28:54;17.50;99.90
13711;DHT22;6927;51.256;9.410;2023-05-10T12:31:20;17.20;99.90
13711;DHT22;6927;51.256;9.410;2023-05-10T12:33:46;16.90;99.90
13711;DHT22;6927;51.256;9.410;2023-05-10T12:36:14;16.60;99.90
13711;DHT22;6927;51.256;9.410;2023-05-10T12:38:49;16.40;99.90
13711;DHT22;6927;51.256;9.410;2023-05-10T12:41:18;16.30;1.00
13711;DHT22;6927;51.256;9.410;2023-05-10T12:43:44;16.20;1.00
13711;DHT22;6927;51.256;9.410;2023-05-10T12:46:15;16.20;99.90
13711;DHT22;6927;51.256;9.410;2023-05-10T12:48:42;16.30;99.90
13711;DHT22;6927;51.256;9.410;2023-05-10T12:51:08;16.40;99.90
13711;DHT22;6927;51.256;9.410;2023-05-10T12:53:35;16.60;1.00
13711;DHT22;6927;51.256;9.410;2023-05-10T12:56:01;17.00;99.90
13711;DHT22;6927;51.256;9.410;2023-05-10T12:58:27;17.40;99.90
13711;DHT22;6927;51.256;9.410;2023-05-10T13:00:53;17.60;99.90
13711;DHT22;6927;51.256;9.410;2023-05-10T13:03:19;17.90;99.90
13711;DHT22;6927;51.256;9.410;2023-05-10T13:05:44;18.10;99.90
13711;DHT22;6927;51.256;9.410;2023-05-10T13:08:10;18.20;99.90
13711;DHT22;6927;51.256;9.410;2023-05-10T13:10:36;18.30;99.90
13711;DHT22;6927;51.256;9.410;2023-05-10T13:13:01;18.40;99.90
13711;DHT22;6927;51.256;9.410;2023-05-10T13:15:27;18.60;99.90
13711;DHT22;6927;51.256;9.410;2023-05-10T13:17:53;19.00;99.90
13711;DHT22;6927;51.256;9.410;2023-05-10T13:20:19;19.40;99.90
13711;DHT22;6927;51.256;9.410;2023-05-10T13:22:45;19.50;99.90
13711;DHT22;6927;51.256;9.410;2023-05-10T13:25:11;18.90;99.90
13711;DHT22;6927;51.256;9.410;2023-05-10T13:27:38;18.70;99.90
13711;DHT22;6927;51.256;9.410;2023-05-10T13:30:05;18.80;99.90
13711;DHT22;6927;51.256;9.410;2023-05-10T13:32:30;19.10;99.90
13711;DHT22;6927;51.256;9.410;2023-05-10T13:34:56;19.00;99.90
13711;DHT22;6927;51.256;9.410;2023-05-10T13:37:22;19.00;99.90
13711;DHT22;6927;51.256;9.410;2023-05-10T13:39:48;19.20;99.90
13711;DHT22;6927;51.256;9.410;2023-05-10T13:42:13;19.20;99.90
13711;DHT22;6927;51.256;9.410;2023-05-10T13:44:39;18.90;99.90
13711;DHT22;6927;51.256;9.410;2023-05-10T13:47:05;18.70;99.90
13711;DHT22;6927;51.256;9.410;2023-05-10T13:49:31;18.30;99.90
13711;DHT22;6927;51.256;9.410;2023-05-10T13:51:57;18.10;99.90
13711;DHT22;6927;51.256;9.410;2023-05-10T13:54:23;18.10;99.90
13711;DHT22;6927;51.256;9.410;2023-05-10T13:56:49;17.80;99.90
13711;DHT22;6927;51.256;9.410;2023-05-10T13:59:14;17.60;99.90
13711;DHT22;6927;51.256;9.410;2023-05-10T14:01:41;17.80;99.90
13711;DHT22;6927;51.256;9.410;2023-05-10T14:04:08;17.70;99.90
13711;DHT22;6927;51.256;9.410;2023-05-10T14:06:35;17.60;99.90
13711;DHT22;6927;51.256;9.410;2023-05-10T14:09:02;17.80;99.90
13711;DHT22;6927;51.256;9.410;2023-05-10T14:11:28;17.70;99.90
13711;DHT22;6927;51.256;9.410;2023-05-10T14:13:54;17.80;99.90
13711;DHT22;6927;51.256;9.410;2023-05-10T14:16:20;17.80;99.90
13711;DHT22;6927;51.256;9.410;2023-05-10T14:18:46;18.00;99.90
13711;DHT22;6927;51.256;9.410;2023-05-10T14:21:12;17.80;99.90
13711;DHT22;6927;51.256;9.410;2023-05-10T14:23:38;17.70;99.90
13711;DHT22;6927;51.256;9.410;2023-05-10T14:26:03;17.60;99.90
13711;DHT22;6927;51.256;9.410;2023-05-10T14:28:29;17.60;99.90
13711;DHT22;6927;51.256;9.410;2023-05-10T14:30:55;17.70;99.90
13711;DHT22;6927;51.256;9.410;2023-05-10T14:33:20;17.70;99.90
13711;DHT22;6927;51.256;9.410;2023-05-10T14:35:46;17.70;99.90
13711;DHT22;6927;51.256;9.410;2023-05-10T14:38:12;17.60;99.90
13711;DHT22;6927;51.256;9.410;2023-05-10T14:40:38;17.40;99.90
13711;DHT22;6927;51.256;9.410;2023-05-10T14:43:04;16.80;99.90
13711;DHT22;6927;51.256;9.410;2023-05-10T14:45:29;16.30;99.90
13711;DHT22;6927;51.256;9.410;2023-05-10T14:47:55;16.10;99.90
13711;DHT22;6927;51.256;9.410;2023-05-10T14:50:20;15.90;99.90
13711;DHT22;6927;51.256;9.410;2023-05-10T14:52:46;15.80;99.90
13711;DHT22;6927;51.256;9.410;2023-05-10T14:55:11;15.70;99.90
13711;DHT22;6927;51.256;9.410;2023-05-10T14:57:37;15.60;99.90
13711;DHT22;6927;51.256;9.410;2023-05-10T15:00:03;15.50;99.90
13711;DHT22;6927;51.256;9.410;2023-05-10T15:02:30;15.40;99.90
13711;DHT22;6927;51.256;9.410;2023-05-10T15:04:56;15.20;99.90
13711;DHT22;6927;51.256;9.410;2023-05-10T15:07:23;15.10;99.90
13711;DHT22;6927;51.256;9.410;2023-05-10T15:09:49;15.00;99.90
13711;DHT22;6927;51.256;9.410;2023-05-10T15:12:15;15.00;99.90
13711;DHT22;6927;51.256;9.410;2023-05-10T15:14:40;15.10;99.90
13711;DHT22;6927;51.256;9.410;2023-05-10T15:17:06;15.20;99.90
13711;DHT22;6927;51.256;9.410;2023-05-10T15:19:32;15.20;99.90
13711;DHT22;6927;51.256;9.410;2023-05-10T15:21:58;15.30;99.90
13711;DHT22;6927;51.256;9.410;2023-05-10T15:24:24;15.40;99.90
13711;DHT22;6927;51.256;9.410;2023-05-10T15:26:50;15.70;99.90
13711;DHT22;6927;51.256;9.410;2023-05-10T15:29:15;15.70;99.90
13711;DHT22;6927;51.256;9.410;2023-05-10T15:31:46;15.80;99.90
13711;DHT22;6927;51.256;9.410;2023-05-10T15:34:13;15.90;99.90
13711;DHT22;6927;51.256;9.410;2023-05-10T15:36:38;16.00;99.90
13711;DHT22;6927;51.256;9.410;2023-05-10T15:39:04;16.10;99.90
13711;DHT22;6927;51.256;9.410;2023-05-10T15:41:29;16.10;99.90
13711;DHT22;6927;51.256;9.410;2023-05-10T15:43:55;16.20;99.90
13711;DHT22;6927;51.256;9.410;2023-05-10T15:46:21;16.20;99.90
13711;DHT22;6927;51.256;9.410;2023-05-10T15:48:46;16.30;99.90
13711;DHT22;6927;51.256;9.410;2023-05-10T15:51:12;16.30;99.90
13711;DHT22;6927;51.256;9.410;2023-05-10T15:53:38;16.40;99.90
13711;DHT22;6927;51.256;9.410;2023-05-10T15:56:04;16.40;99.90
13711;DHT22;6927;51.256;9.410;2023-05-10T15:58:30;16.40;99.90
13711;DHT22;6927;51.256;9.410;2023-05-10T16:00:55;16.20;99.90
13711;DHT22;6927;51.256;9.410;2023-05-10T16:03:22;16.10;99.90
13711;DHT22;6927;51.256;9.410;2023-05-10T16:05:47;15.90;99.90
13711;DHT22;6927;51.256;9.410;2023-05-10T16:08:13;15.80;99.90
13711;DHT22;6927;51.256;9.410;2023-05-10T16:10:38;15.70;99.90
13711;DHT22;6927;51.256;9.410;2023-05-10T16:13:04;15.60;99.90
13711;DHT22;6927;51.256;9.410;2023-05-10T16:15:29;15.60;99.90